createdAt,value
2023-06-04T00:00:00.797Z,25.20
2023-06-04T00:02:29.316Z,25.10
2023-06-04T00:04:57.870Z,25.10
2023-06-04T00:07:27.213Z,25.10
2023-06-04T00:09:55.655Z,25.00
2023-06-04T00:12:24.098Z,25.00
2023-06-04T00:14:51.918Z,25.00
2023-06-04T00:17:20.116Z,25.00
2023-06-04T00:19:48.412Z,25.00
2023-06-04T00:22:16.371Z,25.00
2023-06-04T00:24:45.722Z,24.90
2023-06-04T00:27:15.343Z,24.90
2023-06-04T00:29:43.354Z,24.90
2023-06-04T00:32:12.150Z,24.90
2023-06-04T00:34:40.481Z,24.80
2023-06-04T00:37:08.873Z,24.80
2023-06-04T00:39:36.698Z,24.80
2023-06-04T00:42:06.660Z,24.80
2023-06-04T00:44:34.767Z,24.80
2023-06-04T00:47:03.696Z,24.70
2023-06-04T00:49:32.045Z,24.70
2023-06-04T00:51:59.852Z,24.70
2023-06-04T00:54:28.218Z,24.70
2023-06-04T00:56:56.202Z,24.60
2023-06-04T00:59:25.655Z,24.60
2023-06-04T01:01:55.978Z,24.60
2023-06-04T01:04:26.870Z,24.60
2023-06-04T01:06:55.271Z,24.50
2023-06-04T01:09:23.614Z,24.50
2023-06-04T01:11:51.522Z,24.50
2023-06-04T01:14:21.746Z,24.50
2023-06-04T01:16:52.132Z,24.50
2023-06-04T01:19:32.040Z,24.40
2023-06-04T01:22:01.129Z,24.50
2023-06-04T01:24:29.086Z,24.40
2023-06-04T01:26:57.840Z,24.40
2023-06-04T01:29:25.754Z,24.30
2023-06-04T01:31:55.425Z,24.30
2023-06-04T01:34:23.634Z,24.30
2023-06-04T01:36:51.948Z,24.30
2023-06-04T01:39:20.372Z,24.20
2023-06-04T01:41:48.359Z,24.20
2023-06-04T01:44:16.681Z,24.20
2023-06-04T01:46:44.743Z,24.10
2023-06-04T01:49:14.141Z,24.10
2023-06-04T01:51:42.153Z,24.10
2023-06-04T01:54:10.116Z,24.10
2023-06-04T01:56:38.028Z,24.10
2023-06-04T01:59:06.621Z,24.00
2023-06-04T02:01:35.581Z,24.00
2023-06-04T02:07:47.697Z,24.00
2023-06-04T02:10:16.213Z,23.90
2023-06-04T02:12:56.672Z,23.90
2023-06-04T02:15:25.095Z,23.90
2023-06-04T02:17:53.822Z,23.80
2023-06-04T02:20:21.756Z,23.80
2023-06-04T02:22:51.516Z,23.80
2023-06-04T02:25:19.549Z,23.80
2023-06-04T02:27:48.073Z,23.70
2023-06-04T02:30:18.023Z,23.70
2023-06-04T02:32:50.195Z,23.70
2023-06-04T02:35:22.082Z,23.70
2023-06-04T02:37:52.631Z,23.70
2023-06-04T02:40:20.413Z,23.60
2023-06-04T02:42:48.742Z,23.60
2023-06-04T02:45:16.932Z,23.60
2023-06-04T02:47:44.859Z,23.60
2023-06-04T02:50:13.822Z,23.50
2023-06-04T02:52:46.060Z,23.50
2023-06-04T02:55:15.942Z,23.50
2023-06-04T02:57:44.838Z,23.50
2023-06-04T03:00:14.194Z,23.40
2023-06-04T03:02:43.565Z,23.40
2023-06-04T03:05:14.189Z,23.40
2023-06-04T03:07:43.910Z,23.40
2023-06-04T03:10:12.691Z,23.40
2023-06-04T03:12:41.983Z,23.30
2023-06-04T03:15:11.689Z,23.30
2023-06-04T03:17:40.060Z,23.30
2023-06-04T03:20:09.941Z,23.30
2023-06-04T03:22:37.986Z,23.30
2023-06-04T03:25:07.064Z,23.20
2023-06-04T03:27:35.450Z,23.20
2023-06-04T03:30:05.812Z,23.20
2023-06-04T03:32:34.611Z,23.20
2023-06-04T03:35:02.743Z,23.20
2023-06-04T03:37:31.155Z,23.10
2023-06-04T03:39:59.396Z,23.20
2023-06-04T03:42:27.224Z,23.10
2023-06-04T03:44:55.534Z,23.10
2023-06-04T03:47:25.063Z,23.10
2023-06-04T03:49:53.422Z,23.10
2023-06-04T03:52:21.497Z,23.10
2023-06-04T03:54:49.589Z,23.10
2023-06-04T03:57:17.617Z,23.00
2023-06-04T03:59:46.919Z,23.10
2023-06-04T04:02:15.254Z,23.10
2023-06-04T04:04:44.617Z,23.00
2023-06-04T04:07:12.691Z,23.10
2023-06-04T04:09:41.299Z,23.00
2023-06-04T04:12:09.749Z,23.00
2023-06-04T04:14:37.803Z,23.00
2023-06-04T04:17:06.295Z,23.00
2023-06-04T04:19:34.907Z,23.00
2023-06-04T04:22:04.436Z,23.00
2023-06-04T04:24:33.100Z,23.00
2023-06-04T04:27:01.185Z,22.90
2023-06-04T04:29:34.092Z,23.00
2023-06-04T04:32:03.689Z,23.00
2023-06-04T04:34:33.858Z,23.00
2023-06-04T04:37:04.205Z,23.00
2023-06-04T04:39:33.587Z,23.00
2023-06-04T04:42:01.963Z,23.00
2023-06-04T04:44:30.070Z,23.00
2023-06-04T04:46:58.294Z,23.00
2023-06-04T04:49:26.835Z,22.90
2023-06-04T04:51:55.269Z,23.00
2023-06-04T04:54:23.257Z,23.00
2023-06-04T04:57:01.662Z,23.00
2023-06-04T04:59:40.647Z,23.00
2023-06-04T05:02:08.590Z,23.00
2023-06-04T05:04:37.350Z,23.00
2023-06-04T05:07:05.917Z,23.00
2023-06-04T05:09:33.994Z,23.00
2023-06-04T05:12:03.975Z,23.00
2023-06-04T05:14:32.695Z,23.00
2023-06-04T05:17:01.235Z,23.00
2023-06-04T05:19:29.237Z,23.00
2023-06-04T05:21:57.313Z,23.00
2023-06-04T05:24:25.236Z,23.00
2023-06-04T05:26:53.670Z,23.00
2023-06-04T05:29:23.117Z,23.00
2023-06-04T05:31:51.224Z,23.00
2023-06-04T05:34:19.383Z,23.10
2023-06-04T05:36:47.511Z,23.10
2023-06-04T05:39:15.880Z,23.10
2023-06-04T05:41:44.352Z,23.10
2023-06-04T05:44:12.220Z,23.10
2023-06-04T05:46:41.440Z,23.10
2023-06-04T05:49:09.757Z,23.10
2023-06-04T05:51:38.145Z,23.20
2023-06-04T05:54:06.446Z,23.20
2023-06-04T05:56:34.326Z,23.20
2023-06-04T05:59:02.690Z,23.20
2023-06-04T06:01:31.018Z,23.20
2023-06-04T06:04:01.063Z,23.30
2023-06-04T06:06:29.809Z,23.30
2023-06-04T06:08:59.205Z,23.30
2023-06-04T06:11:28.114Z,23.30
2023-06-04T06:13:56.479Z,23.30
2023-06-04T06:16:24.659Z,23.30
2023-06-04T06:18:52.695Z,23.30
2023-06-04T06:21:22.108Z,23.30
2023-06-04T06:23:50.622Z,23.40
2023-06-04T06:26:21.150Z,23.40
2023-06-04T06:28:49.305Z,23.40
2023-06-04T06:31:17.620Z,23.40
2023-06-04T06:33:46.190Z,23.50
2023-06-04T06:36:14.375Z,23.60
2023-06-04T06:38:44.068Z,23.60
2023-06-04T06:41:12.047Z,23.60
2023-06-04T06:43:40.341Z,23.60
2023-06-04T06:46:08.380Z,23.70
2023-06-04T06:48:37.583Z,23.70
2023-06-04T06:51:06.130Z,23.70
2023-06-04T06:53:34.704Z,23.80
2023-06-04T06:56:04.159Z,23.80
2023-06-04T06:58:32.666Z,23.90
2023-06-04T07:01:00.926Z,23.90
2023-06-04T07:03:29.385Z,24.00
2023-06-04T07:05:57.857Z,24.00
2023-06-04T07:08:26.018Z,24.10
2023-06-04T07:10:54.073Z,24.10
2023-06-04T07:13:23.903Z,24.20
2023-06-04T07:15:52.016Z,24.30
2023-06-04T07:18:20.661Z,24.40
2023-06-04T07:20:49.102Z,24.50
2023-06-04T07:23:17.111Z,24.60
2023-06-04T07:25:45.516Z,24.60
2023-06-04T07:28:14.177Z,24.70
2023-06-04T07:30:43.990Z,24.80
2023-06-04T07:33:12.485Z,24.90
2023-06-04T07:35:41.018Z,25.00
2023-06-04T07:38:09.015Z,25.20
2023-06-04T07:40:37.365Z,25.20
2023-06-04T07:43:05.790Z,25.30
2023-06-04T07:45:35.954Z,25.40
2023-06-04T07:48:06.792Z,25.60
2023-06-04T07:50:37.016Z,25.70
2023-06-04T07:53:07.618Z,25.70
2023-06-04T07:55:36.430Z,25.90
2023-06-04T07:58:06.553Z,26.00
2023-06-04T08:00:35.202Z,26.10
2023-06-04T08:03:03.366Z,26.20
2023-06-04T08:05:33.254Z,26.40
2023-06-04T08:08:01.251Z,26.50
2023-06-04T08:10:29.734Z,26.60
2023-06-04T08:12:57.824Z,26.80
2023-06-04T08:15:25.733Z,27.00
2023-06-04T08:17:53.733Z,27.10
2023-06-04T08:20:24.602Z,27.20
2023-06-04T08:22:55.953Z,27.30
2023-06-04T08:25:24.124Z,27.50
2023-06-04T08:27:52.148Z,27.60
2023-06-04T08:30:20.630Z,27.80
2023-06-04T08:32:48.590Z,27.90
2023-06-04T08:35:17.073Z,28.10
2023-06-04T08:37:45.035Z,28.20
2023-06-04T08:40:15.056Z,28.40
2023-06-04T08:42:45.895Z,28.50
2023-06-04T08:45:15.297Z,28.60
2023-06-04T08:47:45.516Z,28.80
2023-06-04T08:50:13.937Z,29.00
2023-06-04T08:52:41.882Z,29.10
2023-06-04T08:55:12.093Z,29.20
2023-06-04T08:57:41.793Z,29.40
2023-06-04T09:00:11.523Z,29.60
2023-06-04T09:02:40.105Z,29.70
2023-06-04T09:05:10.293Z,29.90
2023-06-04T09:07:39.152Z,30.00
2023-06-04T09:10:13.358Z,30.20
2023-06-04T09:12:44.986Z,30.40
2023-06-04T09:15:13.420Z,30.50
2023-06-04T09:17:41.643Z,30.70
2023-06-04T09:20:11.084Z,30.80
2023-06-04T09:22:39.461Z,31.00
2023-06-04T09:25:09.437Z,31.10
2023-06-04T09:27:40.314Z,31.30
2023-06-04T09:30:10.786Z,31.40
2023-06-04T09:32:38.750Z,31.50
2023-06-04T09:35:14.211Z,31.70
2023-06-04T09:37:42.319Z,31.90
2023-06-04T09:40:10.832Z,32.00
2023-06-04T09:42:46.172Z,32.20
2023-06-04T09:45:15.953Z,32.30
2023-06-04T09:47:44.528Z,32.50
2023-06-04T09:50:15.990Z,32.70
2023-06-04T09:52:45.936Z,32.80
2023-06-04T09:55:20.372Z,33.00
2023-06-04T09:57:49.461Z,33.10
2023-06-04T10:00:21.748Z,33.30
2023-06-04T10:02:50.268Z,33.50
2023-06-04T10:05:20.280Z,33.70
2023-06-04T10:07:48.289Z,33.80
2023-06-04T10:10:18.404Z,34.00
2023-06-04T10:12:46.422Z,34.20
2023-06-04T10:15:15.218Z,34.40
2023-06-04T10:17:44.628Z,34.60
2023-06-04T10:20:13.106Z,34.90
2023-06-04T10:22:40.857Z,35.10
2023-06-04T10:25:10.574Z,35.20
2023-06-04T10:27:38.539Z,35.40
2023-06-04T10:30:07.793Z,35.50
2023-06-04T10:32:36.135Z,35.50
2023-06-04T10:35:09.646Z,35.60
2023-06-04T10:37:37.580Z,35.70
2023-06-04T10:40:07.440Z,35.90
2023-06-04T10:42:40.291Z,36.10
2023-06-04T10:45:09.473Z,36.20
2023-06-04T10:47:40.712Z,36.40
2023-06-04T10:50:14.248Z,36.60
2023-06-04T10:52:53.625Z,36.80
2023-06-04T10:55:21.569Z,36.90
2023-06-04T10:57:57.378Z,37.00
2023-06-04T11:00:31.858Z,37.20
2023-06-04T11:03:00.294Z,37.40
2023-06-04T11:05:37.802Z,37.60
2023-06-04T11:08:06.495Z,37.70
2023-06-04T11:10:35.595Z,37.90
2023-06-04T11:13:04.988Z,38.10
2023-06-04T11:15:43.116Z,38.20
2023-06-04T11:18:15.677Z,38.70
2023-06-04T11:20:46.039Z,39.60
2023-06-04T11:23:14.561Z,40.40
2023-06-04T11:25:43.525Z,41.00
2023-06-04T11:28:17.304Z,41.60
2023-06-04T11:30:45.121Z,42.10
2023-06-04T11:33:12.859Z,42.60
2023-06-04T11:35:45.465Z,43.10
2023-06-04T11:38:13.750Z,43.60
2023-06-04T11:40:43.652Z,43.80
2023-06-04T11:43:12.875Z,44.50
2023-06-04T11:45:40.851Z,44.90
2023-06-04T11:48:09.252Z,45.20
2023-06-04T11:50:37.556Z,45.50
2023-06-04T11:53:06.621Z,45.80
2023-06-04T11:55:34.362Z,45.90
2023-06-04T11:58:02.264Z,46.10
2023-06-04T12:00:31.662Z,46.20
2023-06-04T12:03:00.890Z,46.30
2023-06-04T12:05:32.206Z,46.30
2023-06-04T12:08:11.544Z,46.10
2023-06-04T12:10:40.580Z,45.70
2023-06-04T12:13:08.352Z,45.60
2023-06-04T12:15:36.466Z,45.30
2023-06-04T12:18:05.434Z,45.10
2023-06-04T12:20:35.413Z,44.90
2023-06-04T12:23:03.800Z,44.70
2023-06-04T12:25:32.882Z,44.50
2023-06-04T12:28:00.950Z,44.50
2023-06-04T12:30:37.489Z,44.40
2023-06-04T12:33:05.647Z,44.20
2023-06-04T12:35:33.473Z,44.10
2023-06-04T12:38:01.636Z,43.70
2023-06-04T12:40:29.481Z,43.40
2023-06-04T12:42:59.348Z,43.10
2023-06-04T12:45:27.398Z,42.90
2023-06-04T12:47:55.440Z,42.70
2023-06-04T12:50:23.826Z,42.60
2023-06-04T12:52:51.901Z,42.40
2023-06-04T12:55:20.368Z,42.20
2023-06-04T12:57:48.487Z,42.10
2023-06-04T13:00:18.688Z,42.10
2023-06-04T13:02:47.155Z,42.10
2023-06-04T13:05:15.530Z,42.00
2023-06-04T13:07:43.570Z,41.90
2023-06-04T13:10:11.632Z,41.80
2023-06-04T13:12:39.780Z,41.80
2023-06-04T13:15:08.630Z,41.70
2023-06-04T13:17:38.081Z,41.70
2023-06-04T13:20:07.237Z,41.50
2023-06-04T13:22:35.660Z,41.30
2023-06-04T13:25:04.199Z,41.30
2023-06-04T13:27:32.086Z,41.10
2023-06-04T13:30:00.504Z,41.10
2023-06-04T13:32:28.513Z,41.00
2023-06-04T13:34:57.900Z,40.90
2023-06-04T13:37:25.943Z,40.70
2023-06-04T13:39:53.733Z,40.60
2023-06-04T13:42:22.458Z,40.50
2023-06-04T13:44:50.239Z,40.40
2023-06-04T13:47:19.689Z,40.40
2023-06-04T13:49:47.517Z,40.20
2023-06-04T13:52:16.908Z,40.20
2023-06-04T13:54:45.505Z,40.10
2023-06-04T13:57:13.549Z,40.00
2023-06-04T13:59:41.992Z,39.90
2023-06-04T14:02:09.813Z,39.80
2023-06-04T14:04:38.133Z,39.70
2023-06-04T14:07:07.257Z,39.70
2023-06-04T14:09:37.120Z,39.50
2023-06-04T14:12:05.336Z,39.40
2023-06-04T14:14:37.769Z,39.30
2023-06-04T14:17:06.113Z,39.30
2023-06-04T14:19:34.874Z,39.20
2023-06-04T14:22:03.059Z,39.10
2023-06-04T14:24:32.095Z,39.00
2023-06-04T14:27:01.677Z,38.90
2023-06-04T14:29:29.626Z,38.80
2023-06-04T14:31:57.700Z,38.70
2023-06-04T14:34:26.110Z,38.60
2023-06-04T14:36:54.399Z,38.50
2023-06-04T14:39:23.103Z,38.40
2023-06-04T14:41:52.127Z,38.30
2023-06-04T14:44:21.606Z,38.20
2023-06-04T14:46:51.614Z,38.10
2023-06-04T14:49:19.681Z,38.00
2023-06-04T14:51:48.438Z,37.90
2023-06-04T14:54:16.282Z,37.80
2023-06-04T14:56:44.307Z,37.70
2023-06-04T14:59:13.169Z,37.60
2023-06-04T15:01:44.989Z,37.50
2023-06-04T15:04:13.070Z,37.40
2023-06-04T15:06:41.401Z,37.30
2023-06-04T15:09:09.413Z,37.20
2023-06-04T15:11:37.190Z,37.10
2023-06-04T15:14:05.151Z,37.00
2023-06-04T15:16:33.647Z,36.90
2023-06-04T15:19:03.639Z,36.80
2023-06-04T15:21:31.645Z,36.70
2023-06-04T15:24:00.053Z,36.50
2023-06-04T15:26:28.640Z,36.40
2023-06-04T15:28:57.966Z,36.30
2023-06-04T15:31:26.390Z,36.20
2023-06-04T15:33:55.003Z,36.10
2023-06-04T15:36:24.402Z,36.00
2023-06-04T15:38:52.850Z,36.00
2023-06-04T15:41:22.484Z,35.90
2023-06-04T15:43:51.539Z,35.80
2023-06-04T15:46:19.547Z,35.70
2023-06-04T15:48:47.999Z,35.60
2023-06-04T15:51:15.986Z,35.40
2023-06-04T15:53:45.760Z,35.40
2023-06-04T15:56:14.499Z,35.30
2023-06-04T15:58:42.989Z,35.20
2023-06-04T16:01:11.355Z,35.10
2023-06-04T16:03:39.879Z,35.00
2023-06-04T16:06:08.011Z,34.90
2023-06-04T16:08:36.637Z,34.90
2023-06-04T16:11:06.851Z,34.70
2023-06-04T16:13:35.416Z,34.70
2023-06-04T16:16:03.363Z,34.60
2023-06-04T16:18:31.758Z,34.50
2023-06-04T16:20:59.826Z,34.40
2023-06-04T16:23:28.131Z,34.30
2023-06-04T16:25:55.948Z,34.20
2023-06-04T16:28:25.837Z,34.20
2023-06-04T16:30:54.312Z,34.10
2023-06-04T16:33:22.217Z,34.00
2023-06-04T16:35:50.604Z,34.00
2023-06-04T16:38:19.193Z,33.80
2023-06-04T16:40:47.159Z,33.80
2023-06-04T16:43:16.696Z,33.70
2023-06-04T16:45:47.360Z,33.60
2023-06-04T16:48:15.828Z,33.50
2023-06-04T16:50:44.414Z,33.50
2023-06-04T16:53:12.422Z,33.40
2023-06-04T16:55:40.618Z,33.30
2023-06-04T16:58:08.505Z,33.30
2023-06-04T17:00:36.882Z,33.20
2023-06-04T17:03:06.407Z,33.10
2023-06-04T17:05:34.631Z,33.00
2023-06-04T17:08:02.986Z,32.90
2023-06-04T17:10:31.878Z,32.90
2023-06-04T17:13:01.420Z,32.80
2023-06-04T17:15:29.691Z,32.70
2023-06-04T17:18:01.846Z,32.70
2023-06-04T17:20:31.761Z,32.70
2023-06-04T17:23:00.762Z,32.60
2023-06-04T17:25:29.014Z,32.50
2023-06-04T17:27:57.531Z,32.50
2023-06-04T17:30:25.631Z,32.40
2023-06-04T17:32:54.167Z,32.30
2023-06-04T17:35:22.153Z,32.30
2023-06-04T17:37:52.357Z,32.30
2023-06-04T17:40:20.807Z,32.20
2023-06-04T17:42:48.684Z,32.10
2023-06-04T17:45:16.650Z,32.10
2023-06-04T17:47:45.655Z,32.00
2023-06-04T17:50:13.653Z,32.00
2023-06-04T17:52:41.820Z,31.90
2023-06-04T17:55:12.686Z,31.80
2023-06-04T17:57:40.776Z,31.80
2023-06-04T18:00:10.053Z,31.70
2023-06-04T18:02:38.161Z,31.60
2023-06-04T18:05:06.929Z,31.60
2023-06-04T18:07:34.999Z,31.60
2023-06-04T18:10:03.376Z,31.50
2023-06-04T18:12:35.204Z,31.40
2023-06-04T18:15:03.922Z,31.30
2023-06-04T18:17:32.692Z,31.20
2023-06-04T18:20:00.957Z,31.20
2023-06-04T18:22:29.063Z,31.10
2023-06-04T18:24:57.096Z,31.10
2023-06-04T18:27:25.187Z,31.00
2023-06-04T18:29:55.003Z,30.90
2023-06-04T18:32:23.009Z,30.80
2023-06-04T18:34:51.135Z,30.80
2023-06-04T18:37:21.876Z,30.70
2023-06-04T18:39:50.149Z,30.60
2023-06-04T18:42:30.198Z,30.60
2023-06-04T18:45:04.539Z,30.50
2023-06-04T18:47:32.999Z,30.50
2023-06-04T18:50:01.033Z,30.40
2023-06-04T18:52:29.070Z,30.40
2023-06-04T18:54:56.970Z,30.30
2023-06-04T18:57:24.914Z,30.30
2023-06-04T18:59:52.858Z,30.20
2023-06-04T19:02:22.317Z,30.20
2023-06-04T19:04:50.958Z,30.10
2023-06-04T19:07:21.253Z,30.00
2023-06-04T19:09:49.462Z,30.00
2023-06-04T19:12:17.444Z,29.90
2023-06-04T19:14:46.181Z,29.90
2023-06-04T19:17:18.969Z,29.80
2023-06-04T19:19:49.046Z,29.80
2023-06-04T19:22:17.123Z,29.70
2023-06-04T19:24:45.106Z,29.60
2023-06-04T19:27:13.519Z,29.60
2023-06-04T19:29:45.667Z,29.50
2023-06-04T19:32:13.592Z,29.50
2023-06-04T19:34:42.634Z,29.40
2023-06-04T19:37:12.944Z,29.40
2023-06-04T19:39:41.517Z,29.30
2023-06-04T19:42:10.089Z,29.20
2023-06-04T19:44:38.186Z,29.20
2023-06-04T19:47:06.816Z,29.10
2023-06-04T19:49:34.866Z,29.10
2023-06-04T19:52:02.989Z,29.00
2023-06-04T19:54:32.905Z,29.00
2023-06-04T19:57:01.231Z,28.90
2023-06-04T19:59:30.691Z,28.90
2023-06-04T20:01:58.681Z,28.80
2023-06-04T20:04:55.476Z,28.70
2023-06-04T20:07:25.529Z,28.70
2023-06-04T20:09:54.916Z,28.60
2023-06-04T20:12:23.248Z,28.60
2023-06-04T20:14:51.273Z,28.50
2023-06-04T20:17:19.465Z,28.50
2023-06-04T20:19:47.610Z,28.50
2023-06-04T20:22:15.862Z,28.40
2023-06-04T20:24:44.256Z,28.40
2023-06-04T20:27:14.472Z,28.30
2023-06-04T20:29:42.410Z,28.30
2023-06-04T20:32:11.113Z,28.30
2023-06-04T20:34:39.068Z,28.20
2023-06-04T20:37:07.847Z,28.20
2023-06-04T20:39:40.709Z,28.10
2023-06-04T20:42:09.282Z,28.00
2023-06-04T20:44:38.726Z,27.90
2023-06-04T20:47:07.914Z,27.90
2023-06-04T20:49:35.885Z,27.80
2023-06-04T20:52:03.804Z,27.80
2023-06-04T20:54:31.832Z,27.80
2023-06-04T20:56:59.804Z,27.70
2023-06-04T20:59:27.715Z,27.70
2023-06-04T21:01:57.926Z,27.70
2023-06-04T21:04:25.888Z,27.60
2023-06-04T21:06:54.071Z,27.50
2023-06-04T21:09:22.043Z,27.50
2023-06-04T21:11:50.014Z,27.50
2023-06-04T21:14:18.427Z,27.40
2023-06-04T21:16:46.475Z,27.40
2023-06-04T21:19:15.840Z,27.40
2023-06-04T21:21:44.285Z,27.30
2023-06-04T21:24:12.735Z,27.20
2023-06-04T21:26:40.855Z,27.20
2023-06-04T21:29:08.821Z,27.20
2023-06-04T21:31:37.011Z,27.10
2023-06-04T21:34:05.585Z,27.10
2023-06-04T21:36:35.050Z,27.10
2023-06-04T21:39:03.088Z,27.00
2023-06-04T21:41:31.717Z,27.00
2023-06-04T21:44:00.248Z,26.90
2023-06-04T21:46:29.029Z,26.90
2023-06-04T21:48:57.138Z,26.90
2023-06-04T21:51:25.617Z,26.80
2023-06-04T21:53:55.099Z,26.80
2023-06-04T21:56:23.271Z,26.80
2023-06-04T21:58:51.197Z,26.70
2023-06-04T22:01:19.240Z,26.70
2023-06-04T22:03:47.395Z,26.70
2023-06-04T22:06:15.615Z,26.60
2023-06-04T22:08:43.583Z,26.60
2023-06-04T22:11:12.988Z,26.50
2023-06-04T22:13:41.383Z,26.50
2023-06-04T22:16:09.430Z,26.50
2023-06-04T22:18:48.598Z,26.40
2023-06-04T22:21:21.092Z,26.40
2023-06-04T22:23:49.220Z,26.40
2023-06-04T22:26:33.011Z,26.30
2023-06-04T22:29:05.354Z,26.30
2023-06-04T22:31:33.569Z,26.20
2023-06-04T22:34:01.570Z,26.20
2023-06-04T22:36:29.593Z,26.20
2023-06-04T22:38:57.664Z,26.20
2023-06-04T22:41:27.546Z,26.10
2023-06-04T22:43:55.822Z,26.10
2023-06-04T22:46:24.041Z,26.10
2023-06-04T22:48:52.425Z,26.00
2023-06-04T22:51:22.140Z,26.00
2023-06-04T22:53:50.287Z,26.00
2023-06-04T22:56:18.970Z,25.90
2023-06-04T22:58:48.778Z,25.90
2023-06-04T23:01:17.356Z,25.90
2023-06-04T23:03:46.158Z,25.90
2023-06-04T23:06:14.108Z,25.80
2023-06-04T23:08:42.568Z,25.80
2023-06-04T23:11:10.738Z,25.70
2023-06-04T23:13:38.910Z,25.70
2023-06-04T23:16:08.857Z,25.70
2023-06-04T23:18:37.000Z,25.60
2023-06-04T23:21:05.656Z,25.60
2023-06-04T23:23:33.914Z,25.50
2023-06-04T23:26:02.029Z,25.50
2023-06-04T23:28:30.107Z,25.50
2023-06-04T23:30:58.014Z,25.50
2023-06-04T23:33:27.930Z,25.40
2023-06-04T23:35:56.035Z,25.40
2023-06-04T23:38:24.308Z,25.40
2023-06-04T23:40:52.279Z,25.30
2023-06-04T23:43:21.000Z,25.30
2023-06-04T23:45:49.137Z,25.30
2023-06-04T23:48:17.609Z,25.30
2023-06-04T23:50:47.020Z,25.20
2023-06-04T23:53:15.412Z,25.20
2023-06-04T23:55:43.833Z,25.20
2023-06-04T23:58:11.954Z,25.10
